Time,TemperatureF,DewpointF,PressureIn,WindDirection,WindDirectionDegrees,WindSpeedMPH,WindSpeedGustMPH,Humidity,HourlyPrecipIn,Conditions,Clouds,dailyrainin,SoftwareType,DateUTC
2013-01-16 00:03:00,36.2,35.7,29.97,NW,315,3.6,3.6,98,0.00,,---,0.00,VWS V14.01,2013-01-16 06:03:00,
2013-01-16 00:08:00,36.2,35.7,29.97,NNW,338,2.2,2.2,98,0.04,,---,0.04,VWS V14.01,2013-01-16 06:08:00,
2013-01-16 00:13:00,36.2,35.7,30.00,NNW,338,2.5,2.9,98,0.04,,---,0.04,VWS V14.01,2013-01-16 06:13:00,
2013-01-16 00:18:00,36.1,35.5,30.00,NNE,22,2.0,2.0,98,0.04,,---,0.04,VWS V14.01,2013-01-16 06:18:00,
2013-01-16 00:23:00,36.2,35.7,30.00,NNW,338,2.7,2.7,98,0.04,,---,0.04,VWS V14.01,2013-01-16 06:23:00,
2013-01-16 00:28:00,36.1,35.5,29.97,NNE,22,0.0,0.0,98,0.08,,---,0.08,VWS V14.01,2013-01-16 06:28:00,
2013-01-16 00:33:00,36.1,35.5,29.97,NNW,338,2.7,3.8,98,0.08,,---,0.08,VWS V14.01,2013-01-16 06:33:00,
2013-01-16 00:38:00,36.1,35.5,29.97,North,0,0.0,2.0,98,0.08,,---,0.08,VWS V14.01,2013-01-16 06:38:00,
2013-01-16 00:44:00,36.2,35.7,29.97,WNW,292,2.9,3.1,98,0.08,,---,0.08,VWS V14.01,2013-01-16 06:44:00,
2013-01-16 00:49:00,36.1,35.5,29.97,NNW,338,2.5,2.5,98,0.08,,---,0.08,VWS V14.01,2013-01-16 06:49:00,
2013-01-16 00:54:00,36.1,35.5,29.97,NW,315,2.9,3.1,98,0.08,,---,0.08,VWS V14.01,2013-01-16 06:54:00,
2013-01-16 00:59:00,36.1,35.5,30.00,North,0,2.5,2.5,98,0.08,,---,0.08,VWS V14.01,2013-01-16 06:59:00,
2013-01-16 01:04:00,36.1,35.5,30.00,North,0,3.1,3.1,98,0.08,,---,0.08,VWS V14.01,2013-01-16 07:04:00,
2013-01-16 01:09:00,36.1,35.5,30.00,NNW,338,4.0,4.3,98,0.04,,---,0.08,VWS V14.01,2013-01-16 07:09:00,
2013-01-16 01:14:00,36.1,35.5,30.00,North,0,2.7,3.4,98,0.04,,---,0.08,VWS V14.01,2013-01-16 07:14:00,
2013-01-16 01:19:00,36.2,35.7,30.00,NNW,338,2.0,2.5,98,0.04,,---,0.08,VWS V14.01,2013-01-16 07:19:00,
2013-01-16 01:24:00,36.2,35.7,30.00,SSW,202,0.0,2.0,98,0.04,,---,0.08,VWS V14.01,2013-01-16 07:24:00,
2013-01-16 01:29:00,36.1,35.5,30.00,NNW,338,1.1,2.9,98,0.04,,---,0.08,VWS V14.01,2013-01-16 07:29:00,
2013-01-16 01:34:00,36.1,35.5,30.00,NNW,338,2.7,3.6,98,0.00,,---,0.08,VWS V14.01,2013-01-16 07:34:00,
2013-01-16 01:39:00,36.1,35.5,30.00,NW,315,2.9,3.1,98,0.00,,---,0.08,VWS V14.01,2013-01-16 07:39:00,
2013-01-16 01:44:00,36.1,35.5,30.00,NNW,338,0.0,2.0,98,0.00,,---,0.08,VWS V14.01,2013-01-16 07:44:00,
2013-01-16 01:49:00,36.1,35.5,30.00,North,0,2.7,2.9,98,0.04,,---,0.12,VWS V14.01,2013-01-16 07:49:00,
2013-01-16 01:54:00,36.1,35.5,30.00,NNW,338,2.0,2.0,98,0.04,,---,0.12,VWS V14.01,2013-01-16 07:54:00,
2013-01-16 01:59:00,36.1,35.5,30.00,NNE,22,0.0,0.0,98,0.04,,---,0.12,VWS V14.01,2013-01-16 07:59:00,
2013-01-16 02:04:00,36.1,35.5,30.00,NNW,338,0.0,0.0,98,0.08,,---,0.16,VWS V14.01,2013-01-16 08:04:00,
2013-01-16 02:09:00,36.1,35.5,30.00,NNW,338,1.1,2.2,98,0.08,,---,0.16,VWS V14.01,2013-01-16 08:09:00,
2013-01-16 02:14:00,36.1,35.5,30.00,NNW,338,0.0,2.2,98,0.08,,---,0.16,VWS V14.01,2013-01-16 08:14:00,
2013-01-16 02:19:00,36.1,35.5,30.00,NNW,338,1.6,1.6,98,0.08,,---,0.16,VWS V14.01,2013-01-16 08:19:00,
2013-01-16 02:24:00,36.1,35.5,30.00,NNE,22,0.0,0.0,98,0.12,,---,0.20,VWS V14.01,2013-01-16 08:24:00,
2013-01-16 02:29:00,36.1,35.5,30.00,NNW,338,4.0,4.0,98,0.12,,---,0.20,VWS V14.01,2013-01-16 08:29:00,
2013-01-16 02:34:00,36.1,35.5,30.00,North,0,3.1,3.4,98,0.12,,---,0.20,VWS V14.01,2013-01-16 08:34:00,
2013-01-16 02:39:00,36.1,35.5,30.00,North,0,2.5,4.0,98,0.12,,---,0.20,VWS V14.01,2013-01-16 08:39:00,
2013-01-16 02:44:00,36.1,35.5,29.97,NNE,22,0.0,0.0,98,0.12,,---,0.20,VWS V14.01,2013-01-16 08:44:00,
2013-01-16 02:49:00,36.1,35.5,29.97,North,0,1.3,1.3,98,0.08,,---,0.20,VWS V14.01,2013-01-16 08:49:00,
2013-01-16 02:54:00,36.1,35.5,29.97,SSE,158,0.0,0.0,98,0.08,,---,0.20,VWS V14.01,2013-01-16 08:54:00,
2013-01-16 02:59:00,36.1,35.5,30.00,NW,315,3.4,3.4,98,0.08,,---,0.20,VWS V14.01,2013-01-16 08:59:00,
2013-01-16 03:04:00,36.1,35.5,30.00,NNE,22,0.0,0.0,98,0.09,,---,0.25,VWS V14.01,2013-01-16 09:04:00,
2013-01-16 03:09:00,36.1,35.5,30.00,WNW,292,1.6,2.2,98,0.09,,---,0.25,VWS V14.01,2013-01-16 09:09:00,
2013-01-16 03:14:00,36.1,35.5,30.00,NW,315,1.3,2.7,98,0.09,,---,0.25,VWS V14.01,2013-01-16 09:14:00,
2013-01-16 03:19:00,36.2,35.7,30.00,NNW,338,0.0,0.0,98,0.09,,---,0.25,VWS V14.01,2013-01-16 09:19:00,
2013-01-16 03:24:00,36.2,35.7,30.00,NNW,338,2.5,2.5,98,0.05,,---,0.25,VWS V14.01,2013-01-16 09:24:00,
2013-01-16 03:29:00,36.1,35.5,30.00,North,0,0.0,0.0,98,0.05,,---,0.25,VWS V14.01,2013-01-16 09:29:00,
2013-01-16 03:34:00,36.1,35.5,30.00,NNW,338,2.9,4.9,98,0.05,,---,0.25,VWS V14.01,2013-01-16 09:34:00,
2013-01-16 03:39:00,35.9,35.4,30.00,WSW,248,1.6,3.6,98,0.05,,---,0.25,VWS V14.01,2013-01-16 09:39:00,
2013-01-16 03:44:00,36.1,35.5,29.97,North,0,1.6,3.8,98,0.05,,---,0.25,VWS V14.01,2013-01-16 09:44:00,
2013-01-16 03:49:00,35.9,35.4,29.97,North,0,0.9,3.8,98,0.05,,---,0.25,VWS V14.01,2013-01-16 09:49:00,
2013-01-16 03:54:00,35.9,35.4,29.97,NNW,338,2.9,3.4,98,0.05,,---,0.25,VWS V14.01,2013-01-16 09:54:00,
2013-01-16 03:59:00,35.9,35.4,30.00,NNW,338,1.3,1.3,98,0.05,,---,0.25,VWS V14.01,2013-01-16 09:59:00,
2013-01-16 04:04:00,35.9,35.4,30.00,North,0,0.0,2.7,98,0.00,,---,0.25,VWS V14.01,2013-01-16 10:04:00,
2013-01-16 04:09:00,35.9,35.4,30.00,NE,45,1.6,2.9,98,0.00,,---,0.25,VWS V14.01,2013-01-16 10:09:00,
2013-01-16 04:14:00,35.9,35.4,30.00,NNW,338,1.1,2.7,98,0.00,,---,0.25,VWS V14.01,2013-01-16 10:14:00,
2013-01-16 04:19:00,35.9,35.4,30.00,NNW,338,2.9,2.9,98,0.00,,---,0.25,VWS V14.01,2013-01-16 10:19:00,
2013-01-16 04:24:00,35.9,35.4,30.00,NNW,338,2.9,2.9,98,0.00,,---,0.25,VWS V14.01,2013-01-16 10:24:00,
2013-01-16 04:29:00,35.9,35.4,30.00,NNE,22,0.0,1.3,98,0.04,,---,0.29,VWS V14.01,2013-01-16 10:29:00,
2013-01-16 04:34:00,35.9,35.4,30.00,North,0,1.6,2.0,98,0.04,,---,0.29,VWS V14.01,2013-01-16 10:34:00,
2013-01-16 04:39:00,35.7,35.2,30.00,NW,315,3.8,3.8,98,0.04,,---,0.29,VWS V14.01,2013-01-16 10:39:00,
2013-01-16 04:44:00,35.7,35.2,30.00,North,0,2.5,2.5,98,0.04,,---,0.29,VWS V14.01,2013-01-16 10:44:00,
2013-01-16 04:49:00,35.5,35.0,30.00,North,0,0.9,4.3,98,0.04,,---,0.29,VWS V14.01,2013-01-16 10:49:00,
2013-01-16 04:54:00,35.5,35.0,30.00,North,0,3.6,4.0,98,0.04,,---,0.29,VWS V14.01,2013-01-16 10:54:00,
2013-01-16 04:59:00,35.5,35.0,30.00,NNW,338,0.0,2.5,98,0.04,,---,0.29,VWS V14.01,2013-01-16 10:59:00,
2013-01-16 05:04:00,35.5,35.0,30.00,WNW,292,1.6,3.4,98,0.04,,---,0.29,VWS V14.01,2013-01-16 11:04:00,
2013-01-16 05:09:00,35.5,35.0,30.00,NW,315,2.5,2.5,98,0.04,,---,0.29,VWS V14.01,2013-01-16 11:09:00,
2013-01-16 05:14:00,35.5,35.0,30.00,NNW,338,3.4,3.4,98,0.04,,---,0.29,VWS V14.01,2013-01-16 11:14:00,
2013-01-16 05:19:00,35.5,35.0,30.00,NNW,338,1.6,1.6,98,0.04,,---,0.29,VWS V14.01,2013-01-16 11:19:00,
2013-01-16 05:24:00,35.5,35.0,30.00,North,0,2.2,2.7,98,0.04,,---,0.29,VWS V14.01,2013-01-16 11:24:00,
2013-01-16 05:29:00,35.5,35.0,30.00,West,270,0.9,0.9,98,0.00,,---,0.29,VWS V14.01,2013-01-16 11:29:00,
2013-01-16 05:35:00,35.5,35.0,30.00,NNW,338,2.7,2.9,98,0.00,,---,0.29,VWS V14.01,2013-01-16 11:35:00,
2013-01-16 05:40:00,35.7,35.2,30.00,NNW,338,0.0,0.0,98,0.00,,---,0.29,VWS V14.01,2013-01-16 11:40:00,
2013-01-16 05:45:00,35.7,35.2,30.00,NNE,22,0.9,2.0,98,0.00,,---,0.29,VWS V14.01,2013-01-16 11:45:00,
2013-01-16 05:50:00,35.7,35.2,30.00,WNW,292,0.0,0.9,98,0.00,,---,0.29,VWS V14.01,2013-01-16 11:50:00,
2013-01-16 05:55:00,35.7,35.2,30.00,North,0,2.5,2.5,98,0.00,,---,0.29,VWS V14.01,2013-01-16 11:55:00,
2013-01-16 06:00:00,35.7,35.2,30.00,NNE,22,0.0,0.0,98,0.00,,---,0.29,VWS V14.01,2013-01-16 12:00:00,
2013-01-16 06:05:00,35.7,35.2,30.00,WNW,292,0.0,0.0,98,0.00,,---,0.29,VWS V14.01,2013-01-16 12:05:00,
2013-01-16 06:10:00,35.7,35.2,30.00,NW,315,2.5,2.7,98,0.00,,---,0.29,VWS V14.01,2013-01-16 12:10:00,
2013-01-16 06:15:00,35.5,35.0,30.00,WNW,292,4.3,4.3,98,0.00,,---,0.29,VWS V14.01,2013-01-16 12:15:00,
2013-01-16 06:20:00,35.5,35.0,30.00,NNW,338,2.9,2.9,98,0.00,,---,0.29,VWS V14.01,2013-01-16 12:20:00,
2013-01-16 06:25:00,35.7,35.2,30.00,WNW,292,2.9,2.9,98,0.00,,---,0.29,VWS V14.01,2013-01-16 12:25:00,
2013-01-16 06:30:00,35.7,35.2,30.06,NNE,22,0.0,2.2,98,0.00,,---,0.29,VWS V14.01,2013-01-16 12:30:00,
2013-01-16 06:35:00,35.7,35.2,30.06,NNW,338,2.7,3.1,98,0.00,,---,0.29,VWS V14.01,2013-01-16 12:35:00,
2013-01-16 06:40:00,35.5,35.0,30.06,North,0,3.1,4.9,98,0.00,,---,0.29,VWS V14.01,2013-01-16 12:40:00,
2013-01-16 06:45:00,35.5,35.0,30.03,NNW,338,0.9,2.2,98,0.00,,---,0.29,VWS V14.01,2013-01-16 12:45:00,
2013-01-16 06:50:00,35.5,35.0,30.03,NNW,338,0.0,0.0,98,0.00,,---,0.29,VWS V14.01,2013-01-16 12:50:00,
2013-01-16 06:55:00,35.7,35.2,30.03,North,0,0.0,0.0,98,0.00,,---,0.29,VWS V14.01,2013-01-16 12:55:00,
2013-01-16 07:00:00,35.5,35.0,30.03,NNW,338,2.7,2.7,98,0.00,,---,0.29,VWS V14.01,2013-01-16 13:00:00,
2013-01-16 07:05:00,35.5,35.0,30.03,North,0,2.2,2.2,98,0.00,,---,0.29,VWS V14.01,2013-01-16 13:05:00,
2013-01-16 07:10:00,35.5,35.0,30.03,NNW,338,3.1,3.4,98,0.00,,---,0.29,VWS V14.01,2013-01-16 13:10:00,
2013-01-16 07:15:00,35.5,35.0,30.03,NNW,338,1.3,1.6,98,0.00,,---,0.29,VWS V14.01,2013-01-16 13:15:00,
2013-01-16 07:20:00,35.5,35.0,30.03,North,0,2.0,2.0,98,0.00,,---,0.29,VWS V14.01,2013-01-16 13:20:00,
2013-01-16 07:25:00,35.5,35.0,30.03,North,0,0.0,0.0,98,0.00,,---,0.29,VWS V14.01,2013-01-16 13:25:00,
2013-01-16 07:30:00,35.5,35.0,30.03,NNW,338,2.0,2.0,98,0.00,,---,0.29,VWS V14.01,2013-01-16 13:30:00,
2013-01-16 07:35:00,35.5,35.0,30.03,NNW,338,0.0,0.0,98,0.00,,---,0.29,VWS V14.01,2013-01-16 13:35:00,
2013-01-16 07:40:00,35.7,35.2,30.03,WNW,292,2.7,4.0,98,0.00,,---,0.29,VWS V14.01,2013-01-16 13:40:00,
2013-01-16 07:45:00,35.7,35.2,30.06,NNW,338,1.3,1.3,98,0.00,,---,0.29,VWS V14.01,2013-01-16 13:45:00,
2013-01-16 07:50:00,35.5,35.0,30.06,NNW,338,2.2,2.9,98,0.00,,---,0.29,VWS V14.01,2013-01-16 13:50:00,
2013-01-16 07:55:00,35.5,35.0,30.06,NNW,338,1.3,2.9,98,0.00,,---,0.29,VWS V14.01,2013-01-16 13:55:00,
2013-01-16 08:00:00,35.5,35.0,30.03,NW,315,0.9,2.0,98,0.00,,---,0.29,VWS V14.01,2013-01-16 14:00:00,
2013-01-16 08:05:00,35.5,35.0,30.03,North,0,1.3,2.0,98,0.04,,---,0.33,VWS V14.01,2013-01-16 14:05:00,
2013-01-16 08:10:00,35.5,35.0,30.03,North,0,2.5,2.5,98,0.04,,---,0.33,VWS V14.01,2013-01-16 14:10:00,
2013-01-16 08:15:00,35.7,35.2,30.06,North,0,3.4,3.4,98,0.04,,---,0.33,VWS V14.01,2013-01-16 14:15:00,
2013-01-16 08:20:00,35.5,35.0,30.06,North,0,0.0,0.0,98,0.04,,---,0.33,VWS V14.01,2013-01-16 14:20:00,
2013-01-16 08:25:00,35.7,35.2,30.06,North,0,2.2,2.5,98,0.04,,---,0.33,VWS V14.01,2013-01-16 14:25:00,
2013-01-16 08:30:00,35.7,35.2,30.06,NNW,338,0.0,2.9,98,0.04,,---,0.33,VWS V14.01,2013-01-16 14:30:00,
2013-01-16 08:35:00,35.7,35.2,30.06,NNW,338,1.3,1.3,98,0.04,,---,0.33,VWS V14.01,2013-01-16 14:35:00,
2013-01-16 08:40:00,35.7,35.2,30.06,NNW,338,0.0,2.5,98,0.04,,---,0.33,VWS V14.01,2013-01-16 14:40:00,
2013-01-16 08:45:00,35.9,35.4,30.06,NNW,338,0.0,0.0,98,0.04,,---,0.33,VWS V14.01,2013-01-16 14:45:00,
2013-01-16 08:50:00,35.9,35.4,30.06,NNW,338,1.1,3.6,98,0.04,,---,0.33,VWS V14.01,2013-01-16 14:50:00,
2013-01-16 08:55:00,35.9,35.4,30.06,North,0,2.5,2.5,98,0.04,,---,0.33,VWS V14.01,2013-01-16 14:55:00,
2013-01-16 09:00:00,35.9,35.4,30.06,NNW,338,2.9,3.4,98,0.04,,---,0.33,VWS V14.01,2013-01-16 15:00:00,
2013-01-16 09:05:00,35.9,35.4,30.06,NNE,22,0.0,0.0,98,0.00,,---,0.33,VWS V14.01,2013-01-16 15:05:00,
2013-01-16 09:10:00,35.9,35.4,30.06,NNW,338,0.0,2.5,98,0.00,,---,0.33,VWS V14.01,2013-01-16 15:10:00,
2013-01-16 09:15:00,35.9,35.4,30.09,NNW,338,1.6,3.4,98,0.00,,---,0.33,VWS V14.01,2013-01-16 15:15:00,
2013-01-16 09:20:00,35.9,35.4,30.09,North,0,1.3,3.8,98,0.00,,---,0.33,VWS V14.01,2013-01-16 15:20:00,
2013-01-16 09:25:00,35.9,35.4,30.09,NW,315,0.0,1.3,98,0.00,,---,0.33,VWS V14.01,2013-01-16 15:25:00,
2013-01-16 09:30:00,35.9,35.4,30.09,NNW,338,2.0,2.0,98,0.00,,---,0.33,VWS V14.01,2013-01-16 15:30:00,
2013-01-16 09:35:00,35.9,35.4,30.09,NNW,338,0.0,0.0,98,0.00,,---,0.33,VWS V14.01,2013-01-16 15:35:00,
2013-01-16 09:40:00,35.9,35.4,30.09,NNW,338,0.0,0.0,98,0.00,,---,0.33,VWS V14.01,2013-01-16 15:40:00,
2013-01-16 09:45:00,35.9,35.4,30.09,NNW,338,0.0,0.0,98,0.00,,---,0.33,VWS V14.01,2013-01-16 15:45:00,
2013-01-16 09:50:00,35.9,35.4,30.09,NW,315,6.5,6.5,98,0.00,,---,0.33,VWS V14.01,2013-01-16 15:50:00,
2013-01-16 09:55:00,35.9,35.4,30.09,North,0,0.0,0.0,98,0.00,,---,0.33,VWS V14.01,2013-01-16 15:55:00,
2013-01-16 10:00:00,35.9,35.4,30.09,NNW,338,2.0,2.5,98,0.00,,---,0.33,VWS V14.01,2013-01-16 16:00:00,
2013-01-16 10:05:00,35.9,35.4,30.09,NNW,338,2.0,2.5,98,0.00,,---,0.33,VWS V14.01,2013-01-16 16:05:00,
2013-01-16 10:11:00,35.9,35.4,30.09,NNW,338,2.2,3.6,98,0.04,,---,0.37,VWS V14.01,2013-01-16 16:11:00,
2013-01-16 10:16:00,35.9,35.4,30.09,NNW,338,1.1,2.9,98,0.04,,---,0.37,VWS V14.01,2013-01-16 16:16:00,
2013-01-16 10:21:00,35.9,35.4,30.09,WSW,248,2.2,3.6,98,0.04,,---,0.37,VWS V14.01,2013-01-16 16:21:00,
2013-01-16 10:26:00,35.7,35.2,30.09,NNW,338,1.3,3.8,98,0.04,,---,0.37,VWS V14.01,2013-01-16 16:26:00,
2013-01-16 10:31:00,35.7,35.2,30.09,NNW,338,2.5,4.0,98,0.04,,---,0.37,VWS V14.01,2013-01-16 16:31:00,
2013-01-16 10:36:00,35.7,35.2,30.09,NNW,338,4.7,6.5,98,0.04,,---,0.37,VWS V14.01,2013-01-16 16:36:00,
2013-01-16 10:41:00,35.7,35.2,30.09,NNW,338,0.9,2.7,98,0.04,,---,0.37,VWS V14.01,2013-01-16 16:41:00,
2013-01-16 10:46:00,35.9,35.4,30.06,North,0,0.0,2.5,98,0.04,,---,0.37,VWS V14.01,2013-01-16 16:46:00,
2013-01-16 10:51:00,35.9,35.4,30.06,NNW,338,2.9,2.9,98,0.04,,---,0.37,VWS V14.01,2013-01-16 16:51:00,
2013-01-16 10:56:00,35.9,35.4,30.06,NNW,338,2.7,2.7,98,0.04,,---,0.37,VWS V14.01,2013-01-16 16:56:00,
2013-01-16 11:01:00,35.7,35.2,30.06,North,0,2.7,2.7,98,0.04,,---,0.37,VWS V14.01,2013-01-16 17:01:00,
2013-01-16 11:06:00,35.7,35.2,30.06,NNE,22,2.7,2.7,98,0.04,,---,0.37,VWS V14.01,2013-01-16 17:06:00,
2013-01-16 11:11:00,35.9,35.4,30.06,NNW,338,1.3,3.4,98,0.00,,---,0.37,VWS V14.01,2013-01-16 17:11:00,
2013-01-16 11:16:00,35.9,35.4,30.06,North,0,2.5,2.5,98,0.00,,---,0.37,VWS V14.01,2013-01-16 17:16:00,
2013-01-16 11:21:00,35.7,35.2,30.06,NNW,338,0.0,1.6,98,0.00,,---,0.37,VWS V14.01,2013-01-16 17:21:00,
2013-01-16 11:26:00,35.7,35.2,30.06,North,0,2.9,2.9,98,0.00,,---,0.37,VWS V14.01,2013-01-16 17:26:00,
2013-01-16 11:31:00,35.7,35.2,30.06,NNW,338,0.0,0.0,98,0.00,,---,0.37,VWS V14.01,2013-01-16 17:31:00,
2013-01-16 11:36:00,35.5,35.0,30.06,North,0,0.0,0.0,98,0.00,,---,0.37,VWS V14.01,2013-01-16 17:36:00,
2013-01-16 11:41:00,35.5,35.0,30.06,NW,315,0.0,0.0,98,0.00,,---,0.37,VWS V14.01,2013-01-16 17:41:00,
2013-01-16 11:46:00,35.3,34.8,30.06,NNW,338,2.7,2.7,98,0.00,,---,0.37,VWS V14.01,2013-01-16 17:46:00,
2013-01-16 11:51:00,35.5,35.0,30.06,North,0,2.2,2.2,98,0.00,,---,0.37,VWS V14.01,2013-01-16 17:51:00,
2013-01-16 11:56:00,35.5,35.0,30.06,NNE,22,3.4,3.4,98,0.00,,---,0.37,VWS V14.01,2013-01-16 17:56:00,
2013-01-16 12:01:00,35.5,35.0,30.03,North,0,0.0,1.1,98,0.00,,---,0.37,VWS V14.01,2013-01-16 18:01:00,
2013-01-16 12:06:00,35.5,35.0,30.03,NNW,338,2.0,2.5,98,0.04,,---,0.41,VWS V14.01,2013-01-16 18:06:00,
2013-01-16 12:11:00,35.5,35.0,30.03,North,0,0.0,0.0,98,0.04,,---,0.41,VWS V14.01,2013-01-16 18:11:00,
2013-01-16 12:16:00,35.5,35.0,30.03,WNW,292,0.9,1.6,98,0.04,,---,0.41,VWS V14.01,2013-01-16 18:16:00,
2013-01-16 12:21:00,35.7,35.2,30.03,NNW,338,0.0,2.7,98,0.04,,---,0.41,VWS V14.01,2013-01-16 18:21:00,
2013-01-16 12:26:00,35.7,35.2,30.03,NNW,338,0.0,0.0,98,0.04,,---,0.41,VWS V14.01,2013-01-16 18:26:00,
2013-01-16 12:31:00,35.7,35.2,30.03,NNW,338,0.0,0.0,98,0.04,,---,0.41,VWS V14.01,2013-01-16 18:31:00,
2013-01-16 12:36:00,35.9,35.4,30.03,NNE,22,0.0,0.0,98,0.04,,---,0.41,VWS V14.01,2013-01-16 18:36:00,
2013-01-16 12:41:00,35.9,35.4,30.03,NNE,22,1.1,1.6,98,0.09,,---,0.46,VWS V14.01,2013-01-16 18:41:00,
2013-01-16 12:46:00,35.9,35.4,30.03,North,0,0.0,0.0,98,0.09,,---,0.46,VWS V14.01,2013-01-16 18:46:00,
2013-01-16 12:51:00,36.1,35.5,30.03,NNW,338,0.0,0.0,98,0.09,,---,0.46,VWS V14.01,2013-01-16 18:51:00,
2013-01-16 12:56:00,36.1,35.5,30.03,NNE,22,0.0,0.0,98,0.09,,---,0.46,VWS V14.01,2013-01-16 18:56:00,
2013-01-16 13:01:00,36.1,35.5,30.00,NNE,22,1.1,2.0,98,0.09,,---,0.46,VWS V14.01,2013-01-16 19:01:00,
2013-01-16 13:06:00,36.1,35.5,30.00,North,0,0.0,0.0,98,0.05,,---,0.46,VWS V14.01,2013-01-16 19:06:00,
2013-01-16 13:11:00,36.2,35.7,30.00,North,0,0.0,0.0,98,0.05,,---,0.46,VWS V14.01,2013-01-16 19:11:00,
2013-01-16 13:16:00,36.4,35.9,30.00,WNW,292,0.0,0.0,98,0.09,,---,0.50,VWS V14.01,2013-01-16 19:16:00,
2013-01-16 13:21:00,36.4,35.9,30.00,NNE,22,0.0,0.0,98,0.09,,---,0.50,VWS V14.01,2013-01-16 19:21:00,
2013-01-16 13:26:00,36.4,35.9,30.00,NW,315,0.0,0.0,98,0.09,,---,0.50,VWS V14.01,2013-01-16 19:26:00,
2013-01-16 13:31:00,36.6,36.1,30.03,NNW,338,0.0,0.0,98,0.09,,---,0.50,VWS V14.01,2013-01-16 19:31:00,
2013-01-16 13:36:00,36.8,36.3,30.03,NNW,338,0.0,0.0,98,0.09,,---,0.50,VWS V14.01,2013-01-16 19:36:00,
2013-01-16 13:41:00,36.8,36.3,30.03,NW,315,0.0,0.0,98,0.04,,---,0.50,VWS V14.01,2013-01-16 19:41:00,
2013-01-16 13:46:00,36.6,36.1,30.03,North,0,1.1,1.1,98,0.04,,---,0.50,VWS V14.01,2013-01-16 19:46:00,
2013-01-16 13:51:00,36.6,36.1,30.03,NNE,22,0.0,0.0,98,0.04,,---,0.50,VWS V14.01,2013-01-16 19:51:00,
2013-01-16 13:56:00,36.8,36.3,30.03,NW,315,1.1,2.2,98,0.04,,---,0.50,VWS V14.01,2013-01-16 19:56:00,
2013-01-16 14:01:00,36.6,36.1,30.00,NNW,338,2.5,3.6,98,0.04,,---,0.50,VWS V14.01,2013-01-16 20:01:00,
2013-01-16 14:06:00,36.6,36.1,30.00,NNE,22,3.1,3.8,98,0.04,,---,0.50,VWS V14.01,2013-01-16 20:06:00,
2013-01-16 14:11:00,36.6,36.1,30.00,North,0,2.5,3.6,98,0.04,,---,0.50,VWS V14.01,2013-01-16 20:11:00,
2013-01-16 14:16:00,36.6,36.1,30.00,NNW,338,2.7,3.1,98,0.00,,---,0.50,VWS V14.01,2013-01-16 20:16:00,
2013-01-16 14:21:00,36.6,36.1,30.00,NE,45,0.0,0.0,98,0.04,,---,0.54,VWS V14.01,2013-01-16 20:21:00,
2013-01-16 14:26:00,36.6,36.1,30.00,NNW,338,0.0,2.2,98,0.04,,---,0.54,VWS V14.01,2013-01-16 20:26:00,
2013-01-16 14:31:00,36.6,36.1,30.00,NNW,338,0.0,0.0,98,0.04,,---,0.54,VWS V14.01,2013-01-16 20:31:00,
2013-01-16 14:36:00,36.8,36.3,30.00,NW,315,2.7,2.7,98,0.04,,---,0.54,VWS V14.01,2013-01-16 20:36:00,
2013-01-16 14:41:00,36.6,36.1,30.00,NNW,338,1.3,2.5,98,0.04,,---,0.54,VWS V14.01,2013-01-16 20:41:00,
2013-01-16 14:46:00,36.6,36.1,30.00,NNW,338,1.3,3.4,98,0.04,,---,0.54,VWS V14.01,2013-01-16 20:46:00,
2013-01-16 14:51:00,36.6,36.1,30.00,NNW,338,3.8,3.8,98,0.04,,---,0.54,VWS V14.01,2013-01-16 20:51:00,
2013-01-16 14:56:00,36.6,36.1,30.00,North,0,0.0,0.0,98,0.04,,---,0.54,VWS V14.01,2013-01-16 20:56:00,
2013-01-16 15:01:00,36.6,36.1,30.03,NNW,338,0.0,0.0,98,0.04,,---,0.54,VWS V14.01,2013-01-16 21:01:00,
2013-01-16 15:06:00,36.4,35.9,30.03,NNW,338,5.6,6.3,98,0.04,,---,0.54,VWS V14.01,2013-01-16 21:06:00,
2013-01-16 15:11:00,36.2,35.7,30.03,North,0,1.6,1.6,98,0.04,,---,0.54,VWS V14.01,2013-01-16 21:11:00,
2013-01-16 15:16:00,36.1,35.5,30.03,NNE,22,2.7,6.0,98,0.04,,---,0.54,VWS V14.01,2013-01-16 21:16:00,
2013-01-16 15:21:00,36.1,35.5,30.03,WNW,292,5.4,5.4,98,0.00,,---,0.54,VWS V14.01,2013-01-16 21:21:00,
2013-01-16 15:26:00,35.9,35.4,30.03,NW,315,2.5,2.5,98,0.00,,---,0.54,VWS V14.01,2013-01-16 21:26:00,
2013-01-16 15:32:00,36.1,35.5,30.00,North,0,2.9,2.9,98,0.00,,---,0.54,VWS V14.01,2013-01-16 21:32:00,
2013-01-16 15:37:00,35.9,35.4,30.00,WNW,292,0.0,2.5,98,0.00,,---,0.54,VWS V14.01,2013-01-16 21:37:00,
2013-01-16 15:42:00,35.9,35.4,30.00,North,0,3.4,3.4,98,0.00,,---,0.54,VWS V14.01,2013-01-16 21:42:00,
2013-01-16 15:47:00,35.9,35.4,30.00,NNW,338,1.6,1.6,98,0.00,,---,0.54,VWS V14.01,2013-01-16 21:47:00,
2013-01-16 15:52:00,35.7,35.2,30.00,ENE,68,0.9,2.9,98,0.00,,---,0.54,VWS V14.01,2013-01-16 21:52:00,
2013-01-16 15:57:00,35.7,35.2,30.00,NNW,338,4.0,4.3,98,0.00,,---,0.54,VWS V14.01,2013-01-16 21:57:00,
2013-01-16 16:02:00,35.7,35.2,30.00,NNW,338,1.6,2.9,98,0.00,,---,0.54,VWS V14.01,2013-01-16 22:02:00,
2013-01-16 16:07:00,35.7,35.2,30.00,NW,315,3.6,3.6,98,0.00,,---,0.54,VWS V14.01,2013-01-16 22:07:00,
2013-01-16 16:12:00,35.7,35.2,30.00,NNW,338,2.5,2.5,98,0.00,,---,0.54,VWS V14.01,2013-01-16 22:12:00,
2013-01-16 16:17:00,35.5,35.0,30.03,North,0,0.0,3.6,98,0.00,,---,0.54,VWS V14.01,2013-01-16 22:17:00,
2013-01-16 16:22:00,35.5,35.0,30.03,NNW,338,2.5,2.5,98,0.00,,---,0.54,VWS V14.01,2013-01-16 22:22:00,
2013-01-16 16:27:00,35.5,35.0,30.03,NNW,338,3.1,3.1,98,0.00,,---,0.54,VWS V14.01,2013-01-16 22:27:00,
2013-01-16 16:32:00,35.3,34.8,30.03,NNW,338,4.0,6.0,98,0.00,,---,0.54,VWS V14.01,2013-01-16 22:32:00,
2013-01-16 16:37:00,35.3,34.8,30.03,NNW,338,3.8,3.8,98,0.00,,---,0.54,VWS V14.01,2013-01-16 22:37:00,
2013-01-16 16:42:00,35.3,34.8,30.03,NNW,338,3.6,5.4,98,0.00,,---,0.54,VWS V14.01,2013-01-16 22:42:00,
2013-01-16 16:47:00,35.3,34.8,30.00,NW,315,2.2,2.2,98,0.00,,---,0.54,VWS V14.01,2013-01-16 22:47:00,
2013-01-16 16:52:00,35.3,34.8,30.00,NNW,338,2.9,5.6,98,0.00,,---,0.54,VWS V14.01,2013-01-16 22:52:00,
2013-01-16 16:57:00,35.3,34.8,30.00,NNE,22,0.9,3.4,98,0.00,,---,0.54,VWS V14.01,2013-01-16 22:57:00,
2013-01-16 17:02:00,35.3,34.8,30.03,NW,315,0.0,0.0,98,0.00,,---,0.54,VWS V14.01,2013-01-16 23:02:00,
2013-01-16 17:07:00,35.3,34.8,30.03,NNW,338,2.0,2.0,98,0.00,,---,0.54,VWS V14.01,2013-01-16 23:07:00,
2013-01-16 17:12:00,35.3,34.8,30.03,North,0,0.0,3.6,98,0.00,,---,0.54,VWS V14.01,2013-01-16 23:12:00,
2013-01-16 17:17:00,35.3,34.8,30.03,NNW,338,1.3,5.4,98,0.00,,---,0.54,VWS V14.01,2013-01-16 23:17:00,
2013-01-16 17:22:00,35.3,34.8,30.03,NW,315,2.7,2.7,98,0.00,,---,0.54,VWS V14.01,2013-01-16 23:22:00,
2013-01-16 17:27:00,35.5,35.0,30.03,NNW,338,1.6,2.7,98,0.00,,---,0.54,VWS V14.01,2013-01-16 23:27:00,
2013-01-16 17:32:00,35.5,35.0,30.03,NNW,338,0.0,0.0,98,0.00,,---,0.54,VWS V14.01,2013-01-16 23:32:00,
2013-01-16 17:37:00,35.5,35.0,30.03,ENE,68,0.0,0.0,98,0.00,,---,0.54,VWS V14.01,2013-01-16 23:37:00,
2013-01-16 17:42:00,35.5,35.0,30.03,NNW,338,1.3,2.7,98,0.00,,---,0.54,VWS V14.01,2013-01-16 23:42:00,
2013-01-16 17:47:00,35.5,35.0,30.03,North,0,2.5,2.5,98,0.00,,---,0.54,VWS V14.01,2013-01-16 23:47:00,
2013-01-16 17:52:00,35.5,35.0,30.03,NNW,338,0.0,1.1,98,0.00,,---,0.54,VWS V14.01,2013-01-16 23:52:00,
2013-01-16 17:57:00,35.5,35.0,30.03,NNW,338,0.0,0.0,98,0.00,,---,0.54,VWS V14.01,2013-01-16 23:57:00,
2013-01-16 18:02:00,35.7,35.2,30.03,NW,315,0.0,0.0,98,0.00,,---,0.54,VWS V14.01,2013-01-17 00:02:00,
2013-01-16 18:07:00,35.7,35.2,30.03,NNW,338,0.0,0.0,98,0.00,,---,0.54,VWS V14.01,2013-01-17 00:07:00,
2013-01-16 18:12:00,35.7,35.2,30.03,NNW,338,2.5,4.0,98,0.00,,---,0.54,VWS V14.01,2013-01-17 00:12:00,
2013-01-16 18:17:00,35.7,35.2,30.06,NNW,338,0.0,0.0,98,0.00,,---,0.54,VWS V14.01,2013-01-17 00:17:00,
2013-01-16 18:22:00,35.9,35.4,30.06,NNW,338,0.0,0.0,98,0.00,,---,0.54,VWS V14.01,2013-01-17 00:22:00,
2013-01-16 18:27:00,35.9,35.4,30.06,NNW,338,2.7,2.7,98,0.00,,---,0.54,VWS V14.01,2013-01-17 00:27:00,
2013-01-16 18:32:00,35.9,35.4,30.06,NNW,338,0.0,0.0,98,0.00,,---,0.54,VWS V14.01,2013-01-17 00:32:00,
2013-01-16 18:37:00,35.9,35.4,30.06,NNW,338,2.9,2.9,98,0.00,,---,0.54,VWS V14.01,2013-01-17 00:37:00,
2013-01-16 18:42:00,35.9,35.4,30.06,WNW,292,0.9,2.5,98,0.00,,---,0.54,VWS V14.01,2013-01-17 00:42:00,
2013-01-16 18:47:00,35.9,35.4,30.06,NNW,338,0.0,0.0,98,0.00,,---,0.54,VWS V14.01,2013-01-17 00:47:00,
2013-01-16 18:52:00,35.9,35.4,30.06,NNW,338,1.1,1.1,98,0.00,,---,0.54,VWS V14.01,2013-01-17 00:52:00,
2013-01-16 18:57:00,35.9,35.4,30.06,North,0,1.6,1.6,98,0.00,,---,0.54,VWS V14.01,2013-01-17 00:57:00,
2013-01-16 19:02:00,35.9,35.4,30.06,NNW,338,2.5,2.5,98,0.00,,---,0.54,VWS V14.01,2013-01-17 01:02:00,
2013-01-16 19:07:00,35.9,35.4,30.06,NNW,338,0.0,1.1,98,0.00,,---,0.54,VWS V14.01,2013-01-17 01:07:00,
2013-01-16 19:12:00,35.9,35.4,30.06,NNW,338,2.5,2.7,98,0.00,,---,0.54,VWS V14.01,2013-01-17 01:12:00,
2013-01-16 19:17:00,35.9,35.4,30.06,NNW,338,0.0,0.0,98,0.00,,---,0.54,VWS V14.01,2013-01-17 01:17:00,
2013-01-16 19:22:00,35.9,35.4,30.06,NNW,338,0.0,0.0,98,0.00,,---,0.54,VWS V14.01,2013-01-17 01:22:00,
2013-01-16 19:27:00,35.9,35.4,30.06,NNW,338,1.1,2.9,98,0.00,,---,0.54,VWS V14.01,2013-01-17 01:27:00,
2013-01-16 19:32:00,35.7,35.2,30.06,WNW,292,2.9,2.9,98,0.00,,---,0.54,VWS V14.01,2013-01-17 01:32:00,
2013-01-16 19:37:00,35.7,35.2,30.06,NNW,338,0.0,0.0,98,0.00,,---,0.54,VWS V14.01,2013-01-17 01:37:00,
2013-01-16 19:42:00,35.9,35.4,30.06,NNW,338,0.0,0.0,98,0.00,,---,0.54,VWS V14.01,2013-01-17 01:42:00,
2013-01-16 19:47:00,35.9,35.4,30.06,NNW,338,0.0,0.0,98,0.00,,---,0.54,VWS V14.01,2013-01-17 01:47:00,
2013-01-16 19:52:00,35.9,35.4,30.06,NNW,338,0.0,0.0,98,0.00,,---,0.54,VWS V14.01,2013-01-17 01:52:00,
2013-01-16 19:57:00,35.9,35.4,30.06,NNW,338,0.0,0.0,98,0.00,,---,0.54,VWS V14.01,2013-01-17 01:57:00,
2013-01-16 20:02:00,35.9,35.4,30.06,NW,315,0.0,0.0,98,0.00,,---,0.54,VWS V14.01,2013-01-17 02:02:00,
2013-01-16 20:07:00,35.9,35.4,30.06,NNW,338,2.9,2.9,98,0.00,,---,0.54,VWS V14.01,2013-01-17 02:07:00,
2013-01-16 20:12:00,35.9,35.4,30.06,NNE,22,0.0,2.9,98,0.00,,---,0.54,VWS V14.01,2013-01-17 02:12:00,
2013-01-16 20:17:00,35.9,35.4,30.06,WNW,292,2.7,2.7,98,0.00,,---,0.54,VWS V14.01,2013-01-17 02:17:00,
2013-01-16 20:22:00,35.7,35.2,30.06,NNW,338,0.0,2.2,98,0.00,,---,0.54,VWS V14.01,2013-01-17 02:22:00,
2013-01-16 20:27:00,35.7,35.2,30.06,NNW,338,2.2,2.7,98,0.00,,---,0.54,VWS V14.01,2013-01-17 02:27:00,
2013-01-16 20:32:00,35.7,35.2,30.06,NNW,338,2.5,2.7,98,0.00,,---,0.54,VWS V14.01,2013-01-17 02:32:00,
2013-01-16 20:37:00,35.7,35.2,30.06,NNW,338,0.0,0.0,98,0.00,,---,0.54,VWS V14.01,2013-01-17 02:37:00,
2013-01-16 20:42:00,35.7,35.2,30.06,NNW,338,2.5,3.6,98,0.00,,---,0.54,VWS V14.01,2013-01-17 02:42:00,
2013-01-16 20:47:00,35.9,35.4,30.06,NW,315,0.0,2.0,98,0.00,,---,0.54,VWS V14.01,2013-01-17 02:47:00,
2013-01-16 20:52:00,35.9,35.4,30.06,WNW,292,2.7,2.9,98,0.00,,---,0.54,VWS V14.01,2013-01-17 02:52:00,
2013-01-16 20:57:00,35.7,35.2,30.06,WNW,292,1.6,1.6,98,0.00,,---,0.54,VWS V14.01,2013-01-17 02:57:00,
2013-01-16 21:02:00,35.5,35.0,30.06,NNW,338,4.3,4.3,98,0.00,,---,0.54,VWS V14.01,2013-01-17 03:02:00,
2013-01-16 21:07:00,35.5,35.0,30.06,NNW,338,1.3,2.7,98,0.00,,---,0.54,VWS V14.01,2013-01-17 03:07:00,
2013-01-16 21:12:00,35.3,34.8,30.06,North,0,2.7,2.7,98,0.00,,---,0.54,VWS V14.01,2013-01-17 03:12:00,
2013-01-16 21:18:00,35.3,34.8,30.06,NW,315,2.7,3.8,98,0.00,,---,0.54,VWS V14.01,2013-01-17 03:18:00,
2013-01-16 21:23:00,35.3,34.8,30.06,NNW,338,1.6,2.0,98,0.00,,---,0.54,VWS V14.01,2013-01-17 03:23:00,
2013-01-16 21:28:00,35.3,34.8,30.06,West,270,3.1,3.1,98,0.00,,---,0.54,VWS V14.01,2013-01-17 03:28:00,
2013-01-16 21:33:00,35.3,34.8,30.06,WNW,292,4.3,5.6,98,0.00,,---,0.54,VWS V14.01,2013-01-17 03:33:00,
2013-01-16 21:38:00,35.3,34.8,30.06,North,0,2.5,2.5,98,0.00,,---,0.54,VWS V14.01,2013-01-17 03:38:00,
2013-01-16 21:43:00,35.3,34.8,30.03,NNW,338,7.2,7.2,98,0.00,,---,0.54,VWS V14.01,2013-01-17 03:43:00,
2013-01-16 21:48:00,35.3,34.8,30.03,North,0,0.0,1.6,98,0.00,,---,0.54,VWS V14.01,2013-01-17 03:48:00,
2013-01-16 21:53:00,35.3,34.8,30.03,NNW,338,1.3,5.4,98,0.00,,---,0.54,VWS V14.01,2013-01-17 03:53:00,
2013-01-16 21:58:00,35.3,34.8,30.03,NNW,338,6.3,6.3,98,0.00,,---,0.54,VWS V14.01,2013-01-17 03:58:00,
2013-01-16 22:03:00,35.3,34.8,30.06,NNW,338,2.9,3.1,98,0.00,,---,0.54,VWS V14.01,2013-01-17 04:03:00,
2013-01-16 22:08:00,35.3,34.8,30.06,NE,45,3.4,4.0,98,0.00,,---,0.54,VWS V14.01,2013-01-17 04:08:00,
2013-01-16 22:13:00,35.3,34.8,30.06,NNW,338,2.5,2.9,98,0.00,,---,0.54,VWS V14.01,2013-01-17 04:13:00,
2013-01-16 22:18:00,35.3,34.8,30.06,NW,315,0.9,2.7,98,0.00,,---,0.54,VWS V14.01,2013-01-17 04:18:00,
2013-01-16 22:23:00,35.3,34.8,30.06,North,0,2.0,2.5,98,0.00,,---,0.54,VWS V14.01,2013-01-17 04:23:00,
2013-01-16 22:28:00,35.3,34.8,30.06,NNW,338,1.6,5.8,98,0.00,,---,0.54,VWS V14.01,2013-01-17 04:28:00,
2013-01-16 22:33:00,35.3,34.8,30.03,NNW,338,4.0,4.0,98,0.00,,---,0.54,VWS V14.01,2013-01-17 04:33:00,
2013-01-16 22:38:00,35.3,34.8,30.03,WNW,292,3.1,3.1,98,0.00,,---,0.54,VWS V14.01,2013-01-17 04:38:00,
2013-01-16 22:43:00,35.2,34.7,30.03,NNW,338,4.7,5.6,98,0.00,,---,0.54,VWS V14.01,2013-01-17 04:43:00,
2013-01-16 22:48:00,35.2,34.7,30.03,NNW,338,0.0,0.0,98,0.00,,---,0.54,VWS V14.01,2013-01-17 04:48:00,
2013-01-16 22:53:00,35.2,34.7,30.03,NNW,338,6.0,6.0,98,0.00,,---,0.54,VWS V14.01,2013-01-17 04:53:00,
2013-01-16 22:58:00,35.0,34.5,30.03,NW,315,2.5,2.5,98,0.00,,---,0.54,VWS V14.01,2013-01-17 04:58:00,
2013-01-16 23:02:00,35.0,34.5,30.03,NNE,22,3.1,3.6,98,0.00,,---,0.54,VWS V14.01,2013-01-17 05:02:00,
2013-01-16 23:03:00,35.0,34.5,30.03,NNW,338,1.6,5.4,98,0.00,,---,0.54,VWS V14.01,2013-01-17 05:03:00,
2013-01-16 23:08:00,35.0,34.5,30.03,North,0,2.5,3.6,98,0.00,,---,0.54,VWS V14.01,2013-01-17 05:08:00,
2013-01-16 23:13:00,35.0,34.5,30.03,NNW,338,2.2,3.1,98,0.00,,---,0.54,VWS V14.01,2013-01-17 05:13:00,
2013-01-16 23:18:00,35.0,34.5,30.03,NNW,338,1.6,2.7,98,0.00,,---,0.54,VWS V14.01,2013-01-17 05:18:00,
2013-01-16 23:23:00,34.8,34.3,30.03,WNW,292,2.0,2.5,98,0.00,,---,0.54,VWS V14.01,2013-01-17 05:23:00,
2013-01-16 23:28:00,34.8,34.3,30.03,NNE,22,2.0,3.1,98,0.00,,---,0.54,VWS V14.01,2013-01-17 05:28:00,
2013-01-16 23:33:00,34.8,34.3,30.03,WNW,292,3.1,5.6,98,0.00,,---,0.54,VWS V14.01,2013-01-17 05:33:00,
2013-01-16 23:38:00,34.8,34.3,30.03,NNW,338,4.0,4.0,98,0.00,,---,0.54,VWS V14.01,2013-01-17 05:38:00,
2013-01-16 23:43:00,34.8,34.3,30.03,NW,315,3.6,3.6,98,0.00,,---,0.54,VWS V14.01,2013-01-17 05:43:00,
2013-01-16 23:48:00,34.6,34.1,30.03,NNE,22,3.1,3.6,98,0.00,,---,0.54,VWS V14.01,2013-01-17 05:48:00,
2013-01-16 23:53:00,34.6,34.1,30.03,WNW,292,2.7,5.4,98,0.00,,---,0.54,VWS V14.01,2013-01-17 05:53:00,
2013-01-16 23:58:00,34.6,34.1,30.03,NW,315,5.6,5.6,98,0.00,,---,0.54,VWS V14.01,2013-01-17 05:58:00,